createdAt,value
2023-03-12T00:03:06.877Z,2.1586
2023-03-12T00:08:08.541Z,1.7267
2023-03-12T00:13:10.203Z,1.77625
2023-03-12T00:18:11.932Z,1.52886
2023-03-12T00:23:13.513Z,1.75116
2023-03-12T00:28:15.203Z,1.84579
2023-03-12T00:33:16.853Z,2.39201
2023-03-12T00:38:18.480Z,2.26943
2023-03-12T00:43:20.135Z,2.73023
2023-03-12T00:48:21.862Z,2.48125
2023-03-12T00:53:23.492Z,2.61241
2023-03-12T00:58:25.165Z,2.44664
2023-03-12T01:03:26.837Z,2.69244
2023-03-12T01:08:28.634Z,2.43743
2023-03-12T01:13:30.570Z,2.25578
2023-03-12T01:18:32.276Z,2.06777
2023-03-12T01:23:33.942Z,1.37325
2023-03-12T01:28:35.640Z,1.86135
2023-03-12T01:33:37.338Z,1.78133
2023-03-12T01:38:39.032Z,1.61873
2023-03-12T01:43:40.796Z,0.59839
2023-03-12T01:48:42.393Z,0.41357
2023-03-12T01:53:44.037Z,0.33164
2023-03-12T01:58:45.715Z,0.93342
2023-03-12T02:03:47.539Z,0.48566
2023-03-12T02:08:49.210Z,0.32624
2023-03-12T02:13:50.820Z,0.48724
2023-03-12T02:18:52.476Z,0.31671
2023-03-12T02:23:54.136Z,0.19731
2023-03-12T02:28:55.815Z,0.20207
2023-03-12T02:33:57.426Z,0.34243
2023-03-12T02:38:59.079Z,0.95121
2023-03-12T02:44:00.836Z,1.22527
2023-03-12T02:49:02.501Z,1.74862
2023-03-12T02:54:04.144Z,1.31196
2023-03-12T02:59:05.764Z,1.26718
2023-03-12T03:04:07.440Z,1.22336
2023-03-12T03:09:09.093Z,0.95343
2023-03-12T03:14:10.818Z,1.01345
2023-03-12T03:19:12.908Z,1.41517
2023-03-12T03:24:14.627Z,1.16906
2023-03-12T03:29:16.279Z,0.9331
2023-03-12T03:34:17.910Z,0.95756
2023-03-12T03:39:19.661Z,1.2475
2023-03-12T03:44:21.253Z,0.07822
2023-03-12T03:49:22.900Z,0.85911
2023-03-12T03:54:24.517Z,0.90325
2023-03-12T03:59:26.111Z,0.52535
2023-03-12T04:04:27.735Z,0.29385
2023-03-12T04:09:29.327Z,-0.1301
2023-03-12T04:14:30.961Z,0.16428
2023-03-12T04:19:32.610Z,0.30401
2023-03-12T04:24:34.212Z,0.12935
2023-03-12T04:29:35.856Z,0.06425
2023-03-12T04:34:37.466Z,-0.25014
2023-03-12T04:39:39.154Z,-0.16662
2023-03-12T04:44:40.784Z,0.1773
2023-03-12T04:49:42.433Z,-0.77697
2023-03-12T04:54:46.090Z,0.08489
2023-03-12T04:59:49.389Z,-0.24093
2023-03-12T05:04:51.031Z,0.24971
2023-03-12T05:09:52.716Z,-0.1663
2023-03-12T05:14:54.679Z,0.11411
2023-03-12T05:19:56.326Z,0.35895
2023-03-12T05:24:57.943Z,0.35958
2023-03-12T05:29:59.551Z,-0.0469
2023-03-12T05:35:01.242Z,-0.02245
2023-03-12T05:40:03.218Z,-0.736
2023-03-12T05:45:04.857Z,-0.51879
2023-03-12T05:50:06.569Z,-1.15709
2023-03-12T05:55:08.211Z,-0.07357
2023-03-12T06:00:09.820Z,0.27956
2023-03-12T06:05:11.449Z,-0.12216
2023-03-12T06:10:13.114Z,0.57997
2023-03-12T06:15:14.886Z,0.72161
2023-03-12T06:20:16.519Z,0.40087
2023-03-12T06:25:18.123Z,0.27067
2023-03-12T06:30:19.694Z,-0.47592
2023-03-12T06:35:21.357Z,-0.20314
2023-03-12T06:40:23.032Z,-0.22124
2023-03-12T06:45:24.645Z,0.15444
2023-03-12T06:50:26.278Z,-0.73061
2023-03-12T06:55:27.962Z,0.15475
2023-03-12T07:00:29.638Z,0.26241
2023-03-12T07:05:31.723Z,0.39039
2023-03-12T07:10:33.426Z,0.25796
2023-03-12T07:15:35.092Z,0.35958
2023-03-12T07:20:36.820Z,0.44882
2023-03-12T07:25:38.435Z,0.25923
2023-03-12T07:30:40.185Z,0.14078
2023-03-12T07:35:41.920Z,0.58315
2023-03-12T07:40:43.629Z,0.5606
2023-03-12T07:45:45.801Z,0.33164
2023-03-12T07:50:47.552Z,0.76225
2023-03-12T07:55:49.356Z,0.43167
2023-03-12T08:00:51.065Z,0.1773
2023-03-12T08:05:52.722Z,-0.01419
2023-03-12T08:10:54.440Z,-0.15296
2023-03-12T08:15:56.146Z,-0.43019
2023-03-12T08:20:57.848Z,-0.21521
2023-03-12T08:25:59.727Z,-0.43496
2023-03-12T08:31:01.359Z,0.02646
2023-03-12T08:36:03.039Z,-1.21044
2023-03-12T08:41:04.794Z,-0.73061
2023-03-12T08:46:06.545Z,-0.27618
2023-03-12T08:51:08.233Z,-0.42321
2023-03-12T08:56:09.911Z,-0.68297
2023-03-12T09:01:11.543Z,-0.29364
2023-03-12T09:06:13.122Z,-0.48799
2023-03-12T09:11:14.767Z,-0.31047
2023-03-12T09:16:16.562Z,-0.4248
2023-03-12T09:21:18.247Z,-1.35651
2023-03-12T09:26:19.975Z,-1.8881
2023-03-12T09:31:21.678Z,-0.70457
2023-03-12T09:36:23.315Z,-0.59247
2023-03-12T09:41:24.924Z,-0.29015
2023-03-12T09:46:26.671Z,-0.47592
2023-03-12T09:51:28.496Z,-0.41717
2023-03-12T09:56:30.171Z,-0.41146
2023-03-12T10:01:31.872Z,-0.71663
2023-03-12T10:06:33.562Z,-1.23711
2023-03-12T10:11:35.316Z,-0.8046
2023-03-12T10:16:36.936Z,-0.5966
2023-03-12T10:21:38.648Z,-0.82365
2023-03-12T10:26:40.310Z,-0.56071
2023-03-12T10:31:42.098Z,-0.37875
2023-03-12T10:36:43.829Z,-1.57213
2023-03-12T10:41:45.464Z,-0.25522
2023-03-12T10:46:47.325Z,-0.24887
2023-03-12T10:51:48.942Z,-0.36224
2023-03-12T10:56:50.556Z,-0.66932
2023-03-12T11:01:52.347Z,-0.81825
2023-03-12T11:06:53.975Z,-1.45178
2023-03-12T11:11:55.616Z,-1.26664
2023-03-12T11:16:57.372Z,-1.709
2023-03-12T11:21:58.959Z,-1.77505
2023-03-12T11:27:00.612Z,-1.24759
2023-03-12T11:32:02.433Z,-1.13168
2023-03-12T11:37:04.272Z,-0.53213
2023-03-12T11:42:05.912Z,-0.42797
2023-03-12T11:47:07.642Z,-0.54452
2023-03-12T11:52:09.279Z,-1.41558
2023-03-12T11:57:10.956Z,-0.6455
2023-03-12T12:02:12.874Z,-0.34858
2023-03-12T12:07:14.767Z,-0.46862
2023-03-12T12:12:16.383Z,-0.43972
2023-03-12T12:17:18.106Z,-0.29872
2023-03-12T12:22:19.728Z,-0.3362
2023-03-12T12:27:21.628Z,-0.45496
2023-03-12T12:32:23.388Z,-0.16852
2023-03-12T12:37:25.038Z,-0.54325
2023-03-12T12:42:26.776Z,-0.89732
2023-03-12T12:47:28.495Z,-0.94083
2023-03-12T12:52:30.136Z,-1.14661
2023-03-12T12:57:31.760Z,-0.9529
2023-03-12T13:02:33.549Z,-1.18662
2023-03-12T13:07:35.412Z,-0.96592
2023-03-12T13:12:37.128Z,-1.0831
2023-03-12T13:17:38.889Z,-1.41875
2023-03-12T13:22:40.532Z,-1.42479
2023-03-12T13:27:42.167Z,-1.4286
2023-03-12T13:32:43.763Z,-1.58198
2023-03-12T13:37:45.380Z,-1.44638
2023-03-12T13:42:46.985Z,-1.63977
2023-03-12T13:47:48.645Z,-1.41812
2023-03-12T13:52:50.273Z,-1.5642
2023-03-12T13:57:51.893Z,-2.10785
2023-03-12T14:02:53.595Z,-2.50575
2023-03-12T14:07:55.301Z,-1.73123
2023-03-12T14:12:56.936Z,-1.33778
2023-03-12T14:17:58.686Z,-1.33524
2023-03-12T14:23:00.272Z,-1.38255
2023-03-12T14:28:01.911Z,-1.7271
2023-03-12T14:33:03.674Z,-1.43908
2023-03-12T14:38:05.386Z,-1.57944
2023-03-12T14:43:07.035Z,-1.3381
2023-03-12T14:48:08.650Z,-1.5045
2023-03-12T14:53:10.313Z,-1.96844
2023-03-12T14:58:11.968Z,-2.24122
2023-03-12T15:03:13.724Z,-2.15517
2023-03-12T15:08:15.321Z,-2.06784
2023-03-12T15:13:16.946Z,-1.39716
2023-03-12T15:18:18.741Z,-0.71314
2023-03-12T15:23:20.395Z,-0.03674
2023-03-12T15:28:22.057Z,0.62126
2023-03-12T15:33:23.711Z,0.77432
2023-03-12T15:38:25.537Z,-0.07961
2023-03-12T15:43:27.189Z,0.59331
2023-03-12T15:48:28.929Z,0.98836
2023-03-12T15:53:30.831Z,2.21036
2023-03-12T15:58:32.531Z,3.13227
2023-03-12T16:03:34.231Z,0.91405
2023-03-12T16:08:35.818Z,0.02868
2023-03-12T16:13:37.493Z,1.66256
2023-03-12T16:18:39.126Z,2.13288
2023-03-12T16:23:40.816Z,2.60987
2023-03-12T16:28:42.470Z,2.67402
2023-03-12T16:33:44.149Z,2.31103
2023-03-12T16:38:46.023Z,1.31768
2023-03-12T16:43:47.654Z,2.23227
2023-03-12T16:48:49.364Z,3.27518
2023-03-12T16:54:02.024Z,2.1116
2023-03-12T16:59:09.805Z,4.42957
2023-03-12T17:04:11.530Z,2.62765
2023-03-12T17:09:13.227Z,3.20436
2023-03-12T17:14:14.869Z,4.44354
2023-03-12T17:19:16.633Z,4.83163
2023-03-12T17:24:18.252Z,4.49626
2023-03-12T17:29:19.865Z,4.4067
2023-03-12T17:34:21.637Z,3.1021
2023-03-12T17:39:23.298Z,3.85412
2023-03-12T17:44:24.930Z,4.40798
2023-03-12T17:49:26.615Z,6.07813
2023-03-12T17:54:28.231Z,5.56143
2023-03-12T17:59:29.945Z,5.75801
2023-03-12T18:04:31.630Z,5.39914
2023-03-12T18:09:33.264Z,4.89006
2023-03-12T18:14:34.904Z,5.39184
2023-03-12T18:19:36.586Z,6.33665
2023-03-12T18:24:38.195Z,3.72169
2023-03-12T18:29:39.980Z,6.15181
2023-03-12T18:34:41.627Z,5.34071
2023-03-12T18:39:43.323Z,5.27116
2023-03-12T18:44:45.160Z,5.85932
2023-03-12T18:49:46.842Z,5.8571
2023-03-12T18:54:48.652Z,4.74461
2023-03-12T18:59:50.320Z,3.63785
2023-03-12T19:04:54.799Z,4.48038
2023-03-12T19:09:57.627Z,4.27809
2023-03-12T19:14:59.297Z,4.9558
2023-03-12T19:20:01.035Z,5.3153
2023-03-12T19:25:02.867Z,6.0216
2023-03-12T19:30:04.541Z,6.99342
2023-03-12T19:35:06.411Z,6.14864
2023-03-12T19:40:08.062Z,5.57286
2023-03-12T19:45:09.651Z,5.90251
2023-03-12T19:50:11.546Z,5.54332
2023-03-12T19:55:13.163Z,6.76158
2023-03-12T20:00:14.755Z,6.88798
2023-03-12T20:05:16.511Z,7.59652
2023-03-12T20:10:18.137Z,6.69044
2023-03-12T20:15:19.746Z,6.81652
2023-03-12T20:20:21.358Z,6.0775
2023-03-12T20:25:23.149Z,5.97492
2023-03-12T20:30:25.006Z,6.59643
2023-03-12T20:35:26.927Z,6.91021
2023-03-12T20:40:28.600Z,7.37516
2023-03-12T20:45:30.284Z,6.81493
2023-03-12T20:50:31.941Z,7.30973
2023-03-12T20:55:33.643Z,7.24367
2023-03-12T21:00:35.404Z,6.51894
2023-03-12T21:05:37.054Z,6.61644
2023-03-12T21:10:38.708Z,7.49679
2023-03-12T21:15:40.367Z,7.74515
2023-03-12T21:20:42.068Z,7.9249
2023-03-12T21:25:43.671Z,7.40723
2023-03-12T21:30:45.384Z,7.74928
2023-03-12T21:35:47.104Z,7.76833
2023-03-12T21:40:48.705Z,8.01828
2023-03-12T21:45:50.426Z,7.94332
2023-03-12T21:50:52.153Z,6.78857
2023-03-12T21:55:53.801Z,7.53713
2023-03-12T22:00:55.502Z,7.37357
2023-03-12T22:05:57.258Z,6.7873
2023-03-12T22:10:59.168Z,6.69139
2023-03-12T22:16:00.906Z,6.87083
2023-03-12T22:21:02.570Z,6.8775
2023-03-12T22:26:04.239Z,6.31696
2023-03-12T22:31:06.008Z,6.51322
2023-03-12T22:36:07.731Z,6.64185
2023-03-12T22:41:09.388Z,6.81525
2023-03-12T22:46:11.082Z,6.87114
2023-03-12T22:51:12.851Z,6.76666
2023-03-12T22:56:14.681Z,6.76348
2023-03-12T23:01:16.545Z,6.33347
2023-03-12T23:06:18.292Z,6.69711
2023-03-12T23:11:20.050Z,6.08194
2023-03-12T23:16:21.803Z,6.37063
2023-03-12T23:21:23.531Z,6.44494
2023-03-12T23:26:25.142Z,6.02192
2023-03-12T23:31:26.773Z,6.28139
2023-03-12T23:36:28.557Z,6.33315
2023-03-12T23:41:30.215Z,6.50274
2023-03-12T23:46:31.831Z,6.38365
2023-03-12T23:51:33.485Z,5.54428
2023-03-12T23:56:35.095Z,5.94253
